Time;durP1;ratioP1;P1;durP2;ratioP2;P2;SDS_P1;SDS_P2;PMS_P1;PMS_P2;Temp;Humidity;BMP_temperature;BMP_pressure;BME280_temperature;BME280_humidity;BME280_pressure;Samples;Min_cycle;Max_cycle;Signal;HPM_P1;HPM_P2
2023/01/03 00:00:44;;;;;;;19.23;13.50;;;;;;;;;;5056411;28;20179;-70
2023/01/03 00:03:16;;;;;;;19.23;12.70;;;;;;;;;;5055992;28;20555;-68
2023/01/03 00:05:43;;;;;;;20.70;13.17;;;;;;;;;;5055980;28;20242;-70
2023/01/03 00:08:09;;;;;;;19.83;12.53;;;;;;;;;;5056189;28;20193;-69
2023/01/03 00:10:35;;;;;;;18.73;12.23;;;;;;;;;;5055370;28;20178;-69
2023/01/03 00:13:01;;;;;;;23.97;13.53;;;;;;;;;;5054540;28;20279;-69
2023/01/03 00:15:27;;;;;;;20.87;12.47;;;;;;;;;;5054585;28;20179;-69
2023/01/03 00:17:54;;;;;;;18.80;11.47;;;;;;;;;;5055595;28;20174;-70
2023/01/03 00:20:21;;;;;;;21.50;13.13;;;;;;;;;;5055615;28;20178;-70
2023/01/03 00:22:47;;;;;;;22.33;13.30;;;;;;;;;;5054554;28;20207;-69
2023/01/03 00:25:14;;;;;;;20.17;12.37;;;;;;;;;;5056543;28;20181;-69
2023/01/03 00:27:40;;;;;;;22.17;11.93;;;;;;;;;;5056569;28;20733;-67
2023/01/03 00:30:06;;;;;;;20.13;11.33;;;;;;;;;;5057195;28;20210;-71
2023/01/03 00:32:32;;;;;;;21.87;11.80;;;;;;;;;;5081556;22;20319;-68
2023/01/03 00:34:58;;;;;;;20.93;11.30;;;;;;;;;;5055122;28;20170;-68
2023/01/03 00:37:24;;;;;;;18.00;11.27;;;;;;;;;;5055267;28;20178;-68
2023/01/03 00:39:50;;;;;;;19.83;10.80;;;;;;;;;;5055209;28;20258;-68
2023/01/03 00:42:16;;;;;;;19.50;10.33;;;;;;;;;;5055021;28;20175;-68
2023/01/03 00:44:42;;;;;;;23.00;10.37;;;;;;;;;;5053787;28;20221;-68
2023/01/03 00:47:08;;;;;;;14.20;10.60;;;;;;;;;;5053704;28;20178;-68
2023/01/03 00:49:34;;;;;;;16.70;10.10;;;;;;;;;;5054516;28;20660;-68
2023/01/03 00:52:00;;;;;;;19.07;10.60;;;;;;;;;;5053776;28;20217;-69
2023/01/03 00:54:26;;;;;;;19.00;10.47;;;;;;;;;;5054853;28;20202;-67
2023/01/03 00:56:52;;;;;;;17.00;9.80;;;;;;;;;;5054804;28;20182;-69
2023/01/03 00:59:18;;;;;;;17.63;9.80;;;;;;;;;;5054771;28;20177;-70
2023/01/03 01:01:49;;;;;;;14.47;10.27;;;;;;;;;;5055047;28;20186;-69
2023/01/03 01:04:19;;;;;;;20.00;10.57;;;;;;;;;;5054792;28;20615;-68
2023/01/03 01:06:46;;;;;;;16.73;11.17;;;;;;;;;;5054581;28;20207;-68
2023/01/03 01:09:14;;;;;;;16.70;10.27;;;;;;;;;;5055144;28;20183;-68
2023/01/03 01:11:41;;;;;;;18.57;10.07;;;;;;;;;;5054722;28;20634;-68
2023/01/03 01:14:18;;;;;;;16.10;10.20;;;;;;;;;;5054667;28;20602;-71
2023/01/03 01:16:44;;;;;;;16.53;9.70;;;;;;;;;;5055299;28;20250;-70
2023/01/03 01:19:10;;;;;;;14.77;10.40;;;;;;;;;;5053114;28;20413;-70
2023/01/03 01:21:36;;;;;;;15.67;9.63;;;;;;;;;;5052715;28;20182;-70
2023/01/03 01:24:02;;;;;;;18.07;10.20;;;;;;;;;;5053732;28;20202;-68
2023/01/03 01:26:28;;;;;;;15.67;10.07;;;;;;;;;;5054166;28;20175;-67
2023/01/03 01:28:54;;;;;;;14.53;9.90;;;;;;;;;;5054227;28;20239;-70
2023/01/03 01:31:22;;;;;;;16.87;10.20;;;;;;;;;;5054024;28;20702;-70
2023/01/03 01:33:49;;;;;;;16.13;10.37;;;;;;;;;;5052672;28;20618;-68
2023/01/03 01:36:17;;;;;;;15.60;10.33;;;;;;;;;;5054237;28;20183;-68
2023/01/03 01:38:43;;;;;;;15.07;10.33;;;;;;;;;;5052763;28;20186;-68
2023/01/03 01:41:12;;;;;;;17.30;10.97;;;;;;;;;;5054542;28;20637;-68
2023/01/03 01:46:38;;;;;;;18.67;11.80;;;;;;;;;;5054661;28;20247;-68
2023/01/03 01:49:05;;;;;;;12.97;11.53;;;;;;;;;;5054212;28;20642;-68
2023/01/03 01:51:34;;;;;;;14.87;10.20;;;;;;;;;;5053819;28;20676;-69
2023/01/03 01:54:02;;;;;;;17.80;10.40;;;;;;;;;;5053959;28;20198;-68
2023/01/03 01:56:29;;;;;;;16.83;10.73;;;;;;;;;;5052701;28;20179;-68
2023/01/03 01:58:55;;;;;;;15.43;10.07;;;;;;;;;;5053857;28;20182;-68
2023/01/03 02:01:22;;;;;;;14.73;11.27;;;;;;;;;;5054315;28;20231;-68
2023/01/03 02:03:54;;;;;;;16.20;10.90;;;;;;;;;;5052379;28;20232;-68
2023/01/03 02:06:21;;;;;;;16.43;11.90;;;;;;;;;;5054801;28;20158;-68
2023/01/03 02:08:47;;;;;;;19.77;11.23;;;;;;;;;;5058650;28;20209;-68
2023/01/03 02:11:26;;;;;;;14.93;11.10;;;;;;;;;;5054167;28;20240;-68
2023/01/03 02:13:55;;;;;;;21.57;13.23;;;;;;;;;;5053705;28;20205;-67
2023/01/03 02:16:21;;;;;;;21.40;13.87;;;;;;;;;;5053754;28;20186;-70
2023/01/03 02:19:06;;;;;;;19.27;13.83;;;;;;;;;;5053252;28;20177;-70
2023/01/03 02:21:35;;;;;;;21.93;15.03;;;;;;;;;;5053257;28;20312;-67
2023/01/03 02:24:13;;;;;;;17.30;13.83;;;;;;;;;;5053232;28;20701;-70
2023/01/03 02:26:45;;;;;;;23.07;14.90;;;;;;;;;;5053244;28;20182;-70
2023/01/03 02:29:30;;;;;;;23.73;13.77;;;;;;;;;;5052096;28;20204;-70
2023/01/03 02:31:56;;;;;;;21.53;14.30;;;;;;;;;;5053148;28;20206;-71
2023/01/03 02:34:22;;;;;;;20.87;12.60;;;;;;;;;;5052883;28;20674;-70
2023/01/03 02:37:00;;;;;;;18.13;12.30;;;;;;;;;;5051900;28;20182;-70
2023/01/03 02:39:30;;;;;;;16.17;12.37;;;;;;;;;;5053589;28;20536;-70
2023/01/03 02:44:55;;;;;;;14.07;11.33;;;;;;;;;;5053517;28;20560;-70
2023/01/03 02:47:24;;;;;;;17.73;12.50;;;;;;;;;;5053916;28;20173;-70
2023/01/03 02:49:52;;;;;;;17.03;11.97;;;;;;;;;;5054422;28;20553;-70
2023/01/03 02:52:20;;;;;;;21.67;12.60;;;;;;;;;;5053778;28;20212;-69
2023/01/03 02:54:51;;;;;;;21.57;11.63;;;;;;;;;;5054213;28;20242;-70
2023/01/03 02:57:19;;;;;;;21.07;11.33;;;;;;;;;;5053688;28;20169;-70
2023/01/03 02:59:48;;;;;;;17.77;12.07;;;;;;;;;;5052646;28;20182;-70
2023/01/03 03:02:17;;;;;;;15.70;12.27;;;;;;;;;;5053270;28;20179;-70
2023/01/03 03:04:44;;;;;;;19.97;12.03;;;;;;;;;;5051702;28;20248;-70
2023/01/03 03:07:18;;;;;;;26.17;12.37;;;;;;;;;;5052901;28;20174;-70
2023/01/03 03:15:16;;;;;;;23.30;12.60;;;;;;;;;;5053114;28;20220;-70
2023/01/03 03:17:43;;;;;;;24.53;12.73;;;;;;;;;;5052757;28;20215;-70
2023/01/03 03:25:48;;;;;;;18.80;11.90;;;;;;;;;;5053025;28;20197;-70
2023/01/03 03:28:33;;;;;;;18.77;12.60;;;;;;;;;;5052789;28;20560;-70
2023/01/03 03:31:07;;;;;;;20.97;12.77;;;;;;;;;;5052907;28;20163;-70
2023/01/03 03:33:35;;;;;;;15.27;10.80;;;;;;;;;;5052294;28;20217;-70
2023/01/03 03:36:07;;;;;;;19.00;11.90;;;;;;;;;;5052682;28;20570;-70
2023/01/03 03:38:36;;;;;;;20.87;12.17;;;;;;;;;;5052486;28;20181;-70
2023/01/03 03:46:49;;;;;;;16.37;11.73;;;;;;;;;;5055571;28;20555;-69
2023/01/03 03:52:03;;;;;;;19.30;12.73;;;;;;;;;;5056016;28;20312;-69
2023/01/03 03:54:33;;;;;;;17.77;12.20;;;;;;;;;;5055947;28;20574;-69
2023/01/03 03:57:02;;;;;;;29.47;13.33;;;;;;;;;;5056168;28;20193;-70
2023/01/03 03:59:29;;;;;;;16.53;12.60;;;;;;;;;;5054662;28;20260;-70
2023/01/03 04:01:57;;;;;;;21.90;12.83;;;;;;;;;;5056141;28;20189;-70
2023/01/03 04:04:26;;;;;;;19.47;12.63;;;;;;;;;;5055685;28;20205;-70
2023/01/03 04:06:52;;;;;;;18.73;13.30;;;;;;;;;;5054449;28;20174;-70
2023/01/03 04:09:18;;;;;;;21.20;12.30;;;;;;;;;;5055894;28;20175;-70
2023/01/03 04:11:44;;;;;;;22.00;12.47;;;;;;;;;;5054276;28;20317;-70
2023/01/03 04:14:11;;;;;;;22.50;11.57;;;;;;;;;;5055657;28;20229;-70
2023/01/03 04:16:37;;;;;;;22.80;12.03;;;;;;;;;;5056156;28;20178;-70
2023/01/03 04:19:03;;;;;;;25.20;12.90;;;;;;;;;;5055625;28;20176;-70
2023/01/03 04:21:29;;;;;;;22.07;12.50;;;;;;;;;;5054104;28;20300;-70
2023/01/03 04:23:55;;;;;;;21.53;12.30;;;;;;;;;;5054189;28;20337;-70
2023/01/03 04:26:21;;;;;;;26.10;13.07;;;;;;;;;;5055288;28;20182;-70
2023/01/03 04:28:47;;;;;;;19.30;12.47;;;;;;;;;;5055268;28;20227;-70
2023/01/03 04:31:13;;;;;;;21.50;12.50;;;;;;;;;;5054011;28;20175;-70
2023/01/03 04:33:40;;;;;;;22.33;12.07;;;;;;;;;;5053718;28;20214;-70
2023/01/03 04:36:06;;;;;;;17.80;12.13;;;;;;;;;;5054057;28;20631;-70
2023/01/03 04:38:32;;;;;;;25.07;12.40;;;;;;;;;;5059295;28;20179;-69
2023/01/03 04:41:08;;;;;;;19.53;12.80;;;;;;;;;;5055782;28;20175;-70
2023/01/03 04:46:19;;;;;;;20.53;13.20;;;;;;;;;;5055690;28;20178;-70
2023/01/03 04:48:45;;;;;;;25.50;12.73;;;;;;;;;;5055076;28;20214;-70
2023/01/03 04:51:11;;;;;;;23.97;13.20;;;;;;;;;;5053807;28;20268;-70
2023/01/03 04:53:37;;;;;;;23.37;13.30;;;;;;;;;;5053581;28;20280;-70
2023/01/03 04:56:03;;;;;;;21.53;12.97;;;;;;;;;;5054735;28;20213;-70
2023/01/03 04:58:29;;;;;;;21.20;13.83;;;;;;;;;;5053692;28;20202;-70
2023/01/03 05:01:01;;;;;;;24.43;13.70;;;;;;;;;;5055025;28;20174;-70
2023/01/03 05:03:28;;;;;;;26.63;13.97;;;;;;;;;;5053487;28;20237;-70
2023/01/03 05:05:57;;;;;;;25.30;13.90;;;;;;;;;;5053566;28;20186;-70
2023/01/03 05:08:23;;;;;;;19.70;13.93;;;;;;;;;;5054609;28;20187;-70
2023/01/03 05:10:51;;;;;;;19.53;13.83;;;;;;;;;;5054642;28;20185;-70
2023/01/03 05:13:17;;;;;;;25.17;14.07;;;;;;;;;;5054414;28;20206;-69
2023/01/03 05:15:43;;;;;;;23.03;15.17;;;;;;;;;;5053172;28;20530;-70
2023/01/03 05:18:09;;;;;;;25.13;14.30;;;;;;;;;;5054875;28;20619;-70
2023/01/03 05:26:15;;;;;;;24.00;14.87;;;;;;;;;;5054820;28;20216;-70
2023/01/03 05:28:42;;;;;;;27.10;15.40;;;;;;;;;;5054520;28;20612;-69
2023/01/03 05:31:08;;;;;;;26.07;15.53;;;;;;;;;;5054093;28;20186;-70
2023/01/03 05:33:34;;;;;;;31.03;15.63;;;;;;;;;;5053991;28;20218;-68
2023/01/03 05:36:00;;;;;;;27.53;17.00;;;;;;;;;;5052851;28;20182;-70
2023/01/03 05:38:26;;;;;;;27.60;15.70;;;;;;;;;;5054062;28;20217;-70
2023/01/03 05:40:52;;;;;;;25.63;15.67;;;;;;;;;;5054321;28;20369;-70
2023/01/03 05:43:18;;;;;;;29.80;15.60;;;;;;;;;;5053888;28;20257;-69
2023/01/03 05:45:48;;;;;;;24.70;15.30;;;;;;;;;;5054167;28;20202;-70
2023/01/03 05:48:14;;;;;;;25.53;15.77;;;;;;;;;;5052574;28;20190;-70
2023/01/03 05:50:40;;;;;;;26.67;14.43;;;;;;;;;;5053896;28;20178;-69
2023/01/03 05:53:06;;;;;;;27.33;15.53;;;;;;;;;;5053625;28;20236;-70
2023/01/03 05:55:32;;;;;;;19.60;14.10;;;;;;;;;;5053714;28;20593;-70
2023/01/03 05:57:58;;;;;;;26.33;14.97;;;;;;;;;;5052397;28;20236;-70
2023/01/03 06:00:23;;;;;;;20.00;13.97;;;;;;;;;;5053877;28;20178;-70
2023/01/03 06:02:49;;;;;;;21.43;15.03;;;;;;;;;;5053642;28;20233;-71
2023/01/03 06:05:15;;;;;;;21.80;14.10;;;;;;;;;;5053625;28;20193;-70
2023/01/03 06:07:41;;;;;;;23.30;14.90;;;;;;;;;;5052266;28;20570;-69
2023/01/03 06:10:07;;;;;;;25.17;14.23;;;;;;;;;;5051950;28;20563;-70
2023/01/03 06:12:33;;;;;;;24.20;13.90;;;;;;;;;;5053616;28;20281;-70
2023/01/03 06:14:59;;;;;;;27.40;14.20;;;;;;;;;;5053404;28;20610;-70
2023/01/03 06:20:10;;;;;;;21.60;13.27;;;;;;;;;;5053960;28;20752;-70
2023/01/03 06:22:36;;;;;;;30.40;15.43;;;;;;;;;;5053399;28;20232;-70
2023/01/03 06:25:02;;;;;;;21.20;13.60;;;;;;;;;;5053229;28;20260;-70
2023/01/03 06:27:29;;;;;;;22.50;15.03;;;;;;;;;;5052035;28;20190;-69
2023/01/03 06:29:55;;;;;;;22.63;13.37;;;;;;;;;;5053255;28;20174;-70
2023/01/03 06:32:21;;;;;;;23.27;13.87;;;;;;;;;;5052905;28;20205;-70
2023/01/03 06:34:47;;;;;;;21.43;13.67;;;;;;;;;;5052041;28;20239;-70
2023/01/03 06:37:12;;;;;;;26.53;14.37;;;;;;;;;;5052739;28;20179;-70
2023/01/03 06:39:38;;;;;;;25.50;13.47;;;;;;;;;;5051837;28;20190;-70
2023/01/03 06:53:12;;;;;;;20.23;13.70;;;;;;;;;;5052926;28;20221;-70
2023/01/03 06:55:38;;;;;;;31.80;14.30;;;;;;;;;;5052981;28;20165;-69
2023/01/03 06:58:04;;;;;;;25.30;14.47;;;;;;;;;;5052930;28;20689;-70
2023/01/03 07:00:30;;;;;;;28.87;14.30;;;;;;;;;;5051732;28;20324;-70
2023/01/03 07:02:56;;;;;;;26.50;13.00;;;;;;;;;;5053073;28;20252;-70
2023/01/03 07:05:22;;;;;;;20.27;12.33;;;;;;;;;;5053444;28;20179;-70
2023/01/03 07:07:48;;;;;;;24.87;12.50;;;;;;;;;;5053224;28;20179;-70
2023/01/03 07:10:14;;;;;;;25.03;12.03;;;;;;;;;;5051529;28;20186;-70
2023/01/03 07:15:25;;;;;;;22.67;13.10;;;;;;;;;;5053193;28;20652;-69
2023/01/03 07:17:51;;;;;;;20.37;12.30;;;;;;;;;;5053067;28;20209;-70
2023/01/03 07:20:17;;;;;;;26.97;12.20;;;;;;;;;;5053104;28;20201;-70
2023/01/03 07:22:42;;;;;;;23.03;13.17;;;;;;;;;;5055285;28;20202;-70
2023/01/03 07:25:08;;;;;;;21.20;13.20;;;;;;;;;;5055357;28;20201;-69
2023/01/03 07:27:34;;;;;;;33.40;18.33;;;;;;;;;;5055259;28;20186;-70
2023/01/03 07:30:00;;;;;;;26.13;18.43;;;;;;;;;;5057131;28;20692;-69
2023/01/03 07:32:26;;;;;;;36.43;23.13;;;;;;;;;;5056259;28;20662;-70
2023/01/03 07:34:52;;;;;;;21.00;13.13;;;;;;;;;;5056942;28;20249;-70
2023/01/03 07:37:18;;;;;;;27.60;13.43;;;;;;;;;;5056405;28;20572;-71
2023/01/03 07:39:44;;;;;;;24.00;12.63;;;;;;;;;;5056285;28;20631;-70
2023/01/03 07:44:54;;;;;;;23.63;14.00;;;;;;;;;;5056756;28;20645;-70
2023/01/03 07:47:20;;;;;;;22.20;12.97;;;;;;;;;;5056389;28;20170;-70
2023/01/03 07:49:46;;;;;;;22.17;13.57;;;;;;;;;;5056185;28;20174;-69
2023/01/03 07:52:12;;;;;;;22.70;11.93;;;;;;;;;;5054607;28;20242;-70
2023/01/03 07:54:38;;;;;;;19.43;12.00;;;;;;;;;;5054736;28;20183;-69
2023/01/03 07:57:04;;;;;;;18.73;12.07;;;;;;;;;;5056483;28;20208;-70
2023/01/03 07:59:30;;;;;;;22.87;12.63;;;;;;;;;;5056289;28;20185;-69
2023/01/03 08:01:56;;;;;;;17.77;12.13;;;;;;;;;;5054639;28;20210;-70
2023/01/03 08:04:22;;;;;;;23.40;11.80;;;;;;;;;;5055951;28;20237;-69
2023/01/03 08:06:48;;;;;;;19.63;11.93;;;;;;;;;;5054606;28;20198;-69
2023/01/03 08:14:43;;;;;;;19.97;12.33;;;;;;;;;;5056103;28;20309;-69
2023/01/03 08:17:09;;;;;;;20.93;11.83;;;;;;;;;;5055874;28;20670;-67
2023/01/03 08:19:35;;;;;;;20.50;11.60;;;;;;;;;;5054364;28;20217;-70
2023/01/03 08:22:01;;;;;;;18.30;11.20;;;;;;;;;;5055831;28;20190;-70
2023/01/03 08:24:26;;;;;;;23.17;14.20;;;;;;;;;;5055354;28;20281;-69
2023/01/03 08:26:52;;;;;;;19.33;11.27;;;;;;;;;;5054198;28;20178;-70
2023/01/03 08:29:18;;;;;;;15.03;10.00;;;;;;;;;;5055634;28;20186;-70
2023/01/03 08:31:51;;;;;;;16.53;10.30;;;;;;;;;;5053710;28;20189;-70
2023/01/03 08:34:17;;;;;;;17.53;10.07;;;;;;;;;;5053881;28;20308;-69
2023/01/03 08:36:46;;;;;;;16.23;9.60;;;;;;;;;;5055299;28;20182;-70
2023/01/03 08:39:15;;;;;;;13.87;9.87;;;;;;;;;;5055118;28;20257;-70
2023/01/03 08:41:44;;;;;;;23.70;10.30;;;;;;;;;;5053764;28;20327;-70
2023/01/03 08:44:14;;;;;;;13.63;9.20;;;;;;;;;;5055329;28;20202;-69
2023/01/03 08:46:43;;;;;;;12.77;9.73;;;;;;;;;;5071301;22;20257;-72
2023/01/03 08:49:09;;;;;;;16.13;8.67;;;;;;;;;;5038968;28;20186;-72
2023/01/03 08:51:35;;;;;;;14.90;9.63;;;;;;;;;;5055401;28;20230;-72
2023/01/03 08:54:01;;;;;;;14.60;9.20;;;;;;;;;;5037703;28;20183;-71
2023/01/03 08:56:27;;;;;;;12.13;9.03;;;;;;;;;;5056235;28;20212;-71
2023/01/03 08:58:56;;;;;;;12.53;9.03;;;;;;;;;;5055906;28;20182;-72
2023/01/03 09:01:22;;;;;;;14.93;8.50;;;;;;;;;;5055567;28;20167;-72
2023/01/03 09:03:48;;;;;;;13.13;8.53;;;;;;;;;;5055550;28;20179;-71
2023/01/03 09:06:14;;;;;;;14.30;8.30;;;;;;;;;;5054166;28;20202;-74
2023/01/03 09:08:40;;;;;;;13.07;7.47;;;;;;;;;;5055764;28;20181;-72
2023/01/03 09:11:07;;;;;;;16.27;8.00;;;;;;;;;;5056064;28;20178;-71
2023/01/03 09:13:33;;;;;;;14.63;8.00;;;;;;;;;;5055440;28;20209;-72
2023/01/03 09:16:00;;;;;;;13.00;7.00;;;;;;;;;;5053987;28;20194;-72
2023/01/03 09:18:26;;;;;;;14.07;6.97;;;;;;;;;;5055503;28;20179;-71
2023/01/03 09:20:52;;;;;;;10.87;7.27;;;;;;;;;;5054182;28;20630;-72
2023/01/03 09:23:18;;;;;;;11.93;7.43;;;;;;;;;;5055675;28;20190;-72
2023/01/03 09:25:45;;;;;;;11.27;6.80;;;;;;;;;;5055537;28;20210;-72
2023/01/03 09:28:11;;;;;;;9.47;6.40;;;;;;;;;;5055110;28;20610;-72
2023/01/03 09:30:37;;;;;;;10.33;6.03;;;;;;;;;;5055953;28;20210;-72
2023/01/03 09:33:04;;;;;;;11.27;5.57;;;;;;;;;;5053629;28;20208;-72
2023/01/03 09:35:30;;;;;;;10.33;5.33;;;;;;;;;;5055156;28;20195;-72
2023/01/03 09:37:56;;;;;;;7.10;4.63;;;;;;;;;;5054053;28;20182;-72
2023/01/03 09:40:22;;;;;;;11.43;5.10;;;;;;;;;;5056206;28;20175;-72
2023/01/03 09:45:34;;;;;;;7.30;5.10;;;;;;;;;;5055630;28;20252;-73
2023/01/03 09:48:01;;;;;;;6.50;5.40;;;;;;;;;;5055384;28;20265;-73
2023/01/03 09:50:28;;;;;;;11.63;5.37;;;;;;;;;;5053882;28;20278;-73
2023/01/03 10:04:16;;;;;;;9.80;5.87;;;;;;;;;;5054789;28;20174;-73
2023/01/03 10:06:50;;;;;;;9.00;6.23;;;;;;;;;;5053303;28;20198;-73
2023/01/03 10:09:24;;;;;;;10.40;6.37;;;;;;;;;;5054604;28;20158;-73
2023/01/03 10:11:57;;;;;;;8.47;5.57;;;;;;;;;;5053553;28;20174;-72
2023/01/03 10:14:42;;;;;;;8.10;6.20;;;;;;;;;;5053462;28;20167;-73
2023/01/03 10:17:25;;;;;;;6.20;5.60;;;;;;;;;;5053625;28;20174;-72
2023/01/03 10:20:06;;;;;;;11.43;6.47;;;;;;;;;;5055504;28;20155;-72
2023/01/03 10:22:33;;;;;;;8.97;6.00;;;;;;;;;;5055396;28;20268;-73
2023/01/03 10:25:05;;;;;;;10.17;5.80;;;;;;;;;;5055755;28;20195;-72
2023/01/03 10:27:32;;;;;;;9.23;5.77;;;;;;;;;;5054283;28;20653;-72
2023/01/03 10:30:03;;;;;;;12.33;6.07;;;;;;;;;;5054851;28;20174;-72
2023/01/03 10:32:28;;;;;;;10.53;5.53;;;;;;;;;;5052939;28;20202;-72
2023/01/03 10:35:08;;;;;;;9.43;5.53;;;;;;;;;;5054199;28;20204;-72
2023/01/03 10:37:34;;;;;;;7.20;4.83;;;;;;;;;;5054257;28;20542;-72
2023/01/03 10:40:03;;;;;;;8.13;5.37;;;;;;;;;;5054661;28;20728;-73
2023/01/03 10:42:32;;;;;;;7.80;4.50;;;;;;;;;;5053323;28;20216;-73
2023/01/03 10:45:03;;;;;;;17.00;5.07;;;;;;;;;;5055916;28;20214;-73
2023/01/03 10:47:29;;;;;;;9.47;4.30;;;;;;;;;;5055973;28;20174;-72
2023/01/03 10:50:02;;;;;;;4.73;4.30;;;;;;;;;;5054836;28;20190;-72
2023/01/03 10:52:32;;;;;;;4.87;3.73;;;;;;;;;;5053649;28;20263;-72
2023/01/03 10:55:20;;;;;;;6.63;4.00;;;;;;;;;;5056348;28;20707;-72
2023/01/03 10:57:57;;;;;;;11.90;4.63;;;;;;;;;;5058692;28;20186;-72
2023/01/03 11:00:34;;;;;;;7.10;4.43;;;;;;;;;;5058795;28;20158;-72
2023/01/03 11:03:11;;;;;;;7.67;4.33;;;;;;;;;;5056379;28;20236;-72
2023/01/03 11:05:39;;;;;;;11.67;4.90;;;;;;;;;;5057724;28;20594;-72
2023/01/03 11:08:13;;;;;;;9.93;4.40;;;;;;;;;;5057826;28;20642;-72
2023/01/03 11:10:48;;;;;;;7.40;4.30;;;;;;;;;;5057829;28;20193;-72
2023/01/03 11:13:36;;;;;;;6.57;4.60;;;;;;;;;;5056170;28;20283;-70
2023/01/03 11:16:03;;;;;;;6.50;4.30;;;;;;;;;;5057269;28;20194;-72
2023/01/03 11:18:30;;;;;;;6.80;3.90;;;;;;;;;;5057271;28;20190;-71
2023/01/03 11:20:56;;;;;;;5.27;4.00;;;;;;;;;;5056804;28;20206;-72
2023/01/03 11:23:49;;;;;;;9.90;4.00;;;;;;;;;;5057404;28;20650;-72
2023/01/03 11:26:30;;;;;;;9.57;4.40;;;;;;;;;;5057402;28;20669;-72
2023/01/03 11:29:02;;;;;;;5.37;3.90;;;;;;;;;;5055915;28;20214;-72
2023/01/03 11:31:33;;;;;;;7.23;3.93;;;;;;;;;;5057491;28;20177;-72
2023/01/03 11:34:03;;;;;;;5.37;3.90;;;;;;;;;;5057268;28;20197;-72
2023/01/03 11:36:44;;;;;;;8.70;3.97;;;;;;;;;;5057012;28;20198;-72
2023/01/03 11:39:19;;;;;;;9.93;4.10;;;;;;;;;;5058014;28;20170;-72
2023/01/03 11:41:48;;;;;;;8.87;4.40;;;;;;;;;;5062157;28;20167;-72
2023/01/03 11:44:17;;;;;;;5.63;3.60;;;;;;;;;;5058407;28;20221;-72
2023/01/03 11:47:10;;;;;;;6.83;3.70;;;;;;;;;;5059743;28;20220;-74
2023/01/03 11:50:00;;;;;;;7.17;3.23;;;;;;;;;;5052858;28;20605;-74
2023/01/03 11:52:38;;;;;;;7.77;3.30;;;;;;;;;;5057785;28;20277;-73
2023/01/03 11:55:04;;;;;;;5.20;4.27;;;;;;;;;;5056996;28;20226;-74
2023/01/03 11:57:39;;;;;;;6.30;3.43;;;;;;;;;;5056991;28;20189;-74
2023/01/03 12:00:11;;;;;;;6.83;3.70;;;;;;;;;;5056018;28;20177;-74
2023/01/03 12:02:46;;;;;;;8.07;3.53;;;;;;;;;;5057370;28;20166;-74
2023/01/03 12:05:21;;;;;;;6.70;3.10;;;;;;;;;;5057568;28;20197;-74
2023/01/03 12:07:50;;;;;;;6.43;3.27;;;;;;;;;;5059162;28;20178;-74
2023/01/03 12:10:23;;;;;;;8.20;3.13;;;;;;;;;;5057923;28;20221;-74
2023/01/03 12:13:10;;;;;;;5.10;2.97;;;;;;;;;;5057108;28;20194;-74
2023/01/03 12:15:50;;;;;;;6.50;3.07;;;;;;;;;;5055742;28;20230;-73
2023/01/03 12:18:28;;;;;;;7.63;2.87;;;;;;;;;;5057092;28;20181;-74
2023/01/03 12:20:56;;;;;;;7.20;2.63;;;;;;;;;;5056051;28;20194;-75
2023/01/03 12:23:34;;;;;;;7.00;2.63;;;;;;;;;;5055159;28;20236;-74
2023/01/03 12:26:02;;;;;;;6.97;2.20;;;;;;;;;;5056645;28;20785;-75
2023/01/03 12:28:34;;;;;;;5.97;2.40;;;;;;;;;;5055869;28;20182;-75
2023/01/03 12:31:00;;;;;;;5.83;2.40;;;;;;;;;;5056698;28;20170;-74
2023/01/03 12:33:32;;;;;;;4.53;2.10;;;;;;;;;;5057562;28;20206;-74
2023/01/03 12:36:02;;;;;;;3.77;2.00;;;;;;;;;;5061257;28;20285;-75
2023/01/03 12:38:37;;;;;;;3.90;2.63;;;;;;;;;;5065615;28;20269;-75
2023/01/03 12:41:17;;;;;;;7.93;2.17;;;;;;;;;;5067403;28;20246;-75
2023/01/03 12:43:51;;;;;;;6.53;2.37;;;;;;;;;;5067314;28;20173;-74
2023/01/03 12:46:18;;;;;;;5.23;2.13;;;;;;;;;;5073348;28;20233;-75
2023/01/03 12:49:03;;;;;;;6.07;2.00;;;;;;;;;;5073275;28;20199;-75
2023/01/03 12:51:29;;;;;;;3.30;1.97;;;;;;;;;;5071739;28;20268;-75
2023/01/03 12:53:55;;;;;;;6.77;2.47;;;;;;;;;;5071688;28;20205;-74
2023/01/03 12:56:24;;;;;;;5.80;2.30;;;;;;;;;;5070704;28;20265;-75
2023/01/03 12:58:59;;;;;;;7.27;2.27;;;;;;;;;;5073576;28;20265;-76
2023/01/03 13:01:28;;;;;;;6.93;2.60;;;;;;;;;;5070677;28;20185;-75
2023/01/03 13:04:13;;;;;;;6.10;2.23;;;;;;;;;;5072235;28;20182;-75
2023/01/03 13:06:41;;;;;;;6.50;2.10;;;;;;;;;;5073220;28;20201;-74
2023/01/03 13:09:15;;;;;;;5.07;2.23;;;;;;;;;;5073423;28;20178;-75
2023/01/03 13:11:44;;;;;;;5.83;2.37;;;;;;;;;;5070906;28;20249;-74
2023/01/03 13:14:23;;;;;;;6.03;2.50;;;;;;;;;;5060561;28;20190;-75
2023/01/03 13:16:50;;;;;;;4.77;2.17;;;;;;;;;;5060395;28;20187;-75
2023/01/03 13:19:22;;;;;;;3.77;1.90;;;;;;;;;;5057306;28;20224;-75
2023/01/03 13:21:49;;;;;;;4.73;2.40;;;;;;;;;;5056163;28;20189;-75
2023/01/03 13:24:35;;;;;;;5.30;2.43;;;;;;;;;;5058312;28;20187;-76
2023/01/03 13:27:19;;;;;;;5.50;2.10;;;;;;;;;;5058017;28;20283;-75
2023/01/03 13:29:48;;;;;;;6.63;2.80;;;;;;;;;;5058064;28;20189;-76
2023/01/03 13:32:16;;;;;;;5.30;2.30;;;;;;;;;;5060535;28;20198;-74
2023/01/03 13:34:42;;;;;;;7.60;2.70;;;;;;;;;;5055605;28;20639;-74
2023/01/03 13:37:08;;;;;;;10.07;2.93;;;;;;;;;;5062033;28;20606;-74
2023/01/03 13:39:44;;;;;;;5.07;2.20;;;;;;;;;;5143711;27;20551;-74
2023/01/03 13:42:28;;;;;;;6.57;2.80;;;;;;;;;;5139064;28;20180;-75
2023/01/03 13:45:14;;;;;;;6.13;2.20;;;;;;;;;;5140053;28;20206;-74
2023/01/03 13:47:42;;;;;;;2.57;1.90;;;;;;;;;;5142276;27;20167;-74
2023/01/03 13:50:21;;;;;;;5.47;1.70;;;;;;;;;;5141835;28;20175;-73
2023/01/03 13:52:56;;;;;;;4.90;1.90;;;;;;;;;;5137544;28;20669;-74
2023/01/03 13:55:33;;;;;;;4.77;2.30;;;;;;;;;;5136205;28;20198;-74
2023/01/03 13:57:59;;;;;;;6.90;2.00;;;;;;;;;;5135683;28;20210;-74
2023/01/03 14:00:25;;;;;;;4.10;2.00;;;;;;;;;;5136387;28;20210;-74
2023/01/03 14:03:16;;;;;;;2.20;1.50;;;;;;;;;;5134047;28;20175;-74
2023/01/03 14:05:58;;;;;;;3.87;1.70;;;;;;;;;;5133168;28;20203;-75
2023/01/03 14:08:30;;;;;;;2.73;1.40;;;;;;;;;;5135503;27;20186;-74
2023/01/03 14:11:15;;;;;;;4.43;1.93;;;;;;;;;;5134450;28;20171;-74
2023/01/03 14:13:48;;;;;;;4.97;1.70;;;;;;;;;;5133636;28;20180;-75
2023/01/03 14:16:33;;;;;;;3.10;1.80;;;;;;;;;;5134878;28;20201;-74
2023/01/03 14:19:22;;;;;;;3.70;1.60;;;;;;;;;;5137810;28;20318;-74
2023/01/03 14:21:52;;;;;;;3.53;1.80;;;;;;;;;;5124740;27;20195;-75
2023/01/03 14:24:24;;;;;;;2.47;1.60;;;;;;;;;;5137973;27;20148;-73
2023/01/03 14:26:49;;;;;;;2.43;1.73;;;;;;;;;;5136267;28;20201;-74
2023/01/03 14:29:18;;;;;;;2.10;1.53;;;;;;;;;;5137939;28;20639;-74
2023/01/03 14:31:54;;;;;;;3.17;2.10;;;;;;;;;;5135991;28;20205;-74
2023/01/03 14:34:27;;;;;;;3.93;1.77;;;;;;;;;;5136728;27;20224;-74
2023/01/03 14:36:59;;;;;;;2.07;1.50;;;;;;;;;;5134765;28;20180;-74
2023/01/03 14:39:31;;;;;;;3.70;1.90;;;;;;;;;;5134960;28;20212;-74
2023/01/03 14:41:58;;;;;;;4.30;1.87;;;;;;;;;;5137677;27;20153;-74
2023/01/03 14:44:24;;;;;;;5.20;1.80;;;;;;;;;;5138622;28;20191;-74
2023/01/03 14:46:52;;;;;;;1.80;1.60;;;;;;;;;;5138083;28;20210;-74
2023/01/03 14:49:20;;;;;;;3.80;1.43;;;;;;;;;;5135688;28;20181;-74
2023/01/03 14:51:47;;;;;;;3.10;1.87;;;;;;;;;;5125793;28;20179;-74
2023/01/03 14:54:16;;;;;;;3.93;2.60;;;;;;;;;;5125146;28;20183;-74
2023/01/03 14:56:44;;;;;;;2.23;1.73;;;;;;;;;;5122248;28;20207;-74
2023/01/03 14:59:10;;;;;;;2.23;1.67;;;;;;;;;;5122301;28;20204;-75
2023/01/03 15:01:36;;;;;;;3.53;1.80;;;;;;;;;;5125860;28;20240;-74
2023/01/03 15:04:04;;;;;;;5.00;2.10;;;;;;;;;;5128310;28;20230;-75
2023/01/03 15:06:30;;;;;;;3.20;1.80;;;;;;;;;;5127990;28;20200;-74
2023/01/03 15:08:57;;;;;;;3.17;1.87;;;;;;;;;;5130141;28;20534;-75
2023/01/03 15:11:27;;;;;;;3.13;1.70;;;;;;;;;;5130448;28;20195;-74
2023/01/03 15:13:56;;;;;;;3.30;2.00;;;;;;;;;;5127818;28;20177;-74
2023/01/03 15:16:25;;;;;;;3.90;1.93;;;;;;;;;;5126490;28;20245;-74
2023/01/03 15:21:20;;;;;;;3.53;2.07;;;;;;;;;;5074948;28;20218;-69
2023/01/03 15:23:48;;;;;;;3.37;2.03;;;;;;;;;;5075838;28;20170;-70
2023/01/03 15:26:25;;;;;;;3.27;2.00;;;;;;;;;;5074357;28;20180;-69
2023/01/03 15:28:55;;;;;;;3.33;1.80;;;;;;;;;;5076990;28;20654;-69
2023/01/03 15:31:35;;;;;;;2.57;2.13;;;;;;;;;;5097414;28;20179;-70
2023/01/03 15:34:11;;;;;;;2.90;2.03;;;;;;;;;;5097204;28;20176;-67
2023/01/03 15:36:37;;;;;;;4.17;2.30;;;;;;;;;;5096296;28;20172;-70
2023/01/03 15:39:07;;;;;;;5.47;2.97;;;;;;;;;;5077589;28;20250;-70
2023/01/03 15:44:22;;;;;;;3.50;2.50;;;;;;;;;;5096032;28;20195;-67
2023/01/03 15:46:49;;;;;;;2.77;2.10;;;;;;;;;;5077963;28;20712;-70
2023/01/03 15:49:18;;;;;;;4.77;2.53;;;;;;;;;;5095514;28;20201;-70
2023/01/03 15:51:44;;;;;;;5.87;2.60;;;;;;;;;;5110566;28;20180;-70
2023/01/03 15:54:11;;;;;;;8.67;2.97;;;;;;;;;;5096947;28;20177;-70
2023/01/03 15:56:43;;;;;;;5.73;2.73;;;;;;;;;;5092771;28;20217;-67
2023/01/03 15:59:12;;;;;;;7.13;3.13;;;;;;;;;;5103380;28;20216;-69